Time;durP1;ratioP1;P1;durP2;ratioP2;P2;SDS_P1;SDS_P2;PMS_P1;PMS_P2;Temp;Humidity;BMP_temperature;BMP_pressure;BME280_temperature;BME280_humidity;BME280_pressure;Samples;Min_cycle;Max_cycle;Signal;HPM_P1;HPM_P2
2022/12/26 00:01:56;;;;;;;46.40;15.05;;;8.50;99.90;;;;;;5119266;27;20039;-75
2022/12/26 00:04:22;;;;;;;46.13;13.98;;;8.50;99.90;;;;;;5119408;27;20054;-75
2022/12/26 00:06:48;;;;;;;40.53;14.10;;;8.50;99.90;;;;;;5137564;27;20050;-74
2022/12/26 00:09:16;;;;;;;45.95;13.55;;;8.50;99.90;;;;;;5137567;27;20171;-74
2022/12/26 00:11:41;;;;;;;;;;;8.50;99.90;;;;;;5120300;27;20386;-75
2022/12/26 00:14:13;;;;;;;40.50;12.87;;;8.50;99.90;;;;;;5137491;27;19923;-74
2022/12/26 00:16:41;;;;;;;40.40;12.50;;;8.60;99.90;;;;;;5137952;27;20043;-73
2022/12/26 00:19:07;;;;;;;50.60;14.02;;;8.60;99.90;;;;;;5137890;27;20415;-73
2022/12/26 00:21:33;;;;;;;63.60;15.27;;;8.50;99.90;;;;;;5136958;27;20039;-72
2022/12/26 00:23:59;;;;;;;56.95;14.55;;;8.50;99.90;;;;;;5136752;27;20054;-74
2022/12/26 00:26:27;;;;;;;42.53;13.63;;;8.50;99.90;;;;;;5136757;27;20043;-74
2022/12/26 00:28:54;;;;;;;70.30;15.75;;;8.50;99.90;;;;;;5118764;27;20175;-75
2022/12/26 00:31:23;;;;;;;61.90;14.50;;;8.50;99.90;;;;;;5118396;27;20115;-74
2022/12/26 00:33:49;;;;;;;87.22;17.50;;;8.60;99.90;;;;;;5136540;27;20054;-74
2022/12/26 00:36:20;;;;;;;56.97;15.30;;;8.50;99.90;;;;;;5136522;27;20428;-72
2022/12/26 00:38:47;;;;;;;87.35;17.35;;;8.50;99.90;;;;;;5118119;27;20125;-74
2022/12/26 00:41:15;;;;;;;46.28;14.13;;;8.50;99.90;;;;;;5101110;27;20147;-74
2022/12/26 00:43:40;;;;;;;49.45;15.18;;;8.50;99.90;;;;;;5136644;27;20049;-74
2022/12/26 00:46:07;;;;;;;62.90;14.35;;;8.50;99.90;;;;;;5101271;27;20054;-74
2022/12/26 00:48:33;;;;;;;51.22;13.55;;;8.50;99.90;;;;;;5136843;27;20054;-73
2022/12/26 00:50:59;;;;;;;52.22;14.80;;;8.50;99.90;;;;;;5117621;27;20043;-73
2022/12/26 00:53:26;;;;;;;46.40;13.45;;;8.50;99.90;;;;;;5101719;27;20043;-73
2022/12/26 00:55:52;;;;;;;41.83;12.48;;;8.50;99.90;;;;;;5136881;27;20051;-74
2022/12/26 00:58:19;;;;;;;54.90;13.27;;;8.60;99.90;;;;;;5136674;27;20205;-72
2022/12/26 01:00:45;;;;;;;43.75;13.32;;;8.50;99.90;;;;;;5136197;27;20127;-73
2022/12/26 01:03:11;;;;;;;46.63;12.77;;;8.50;99.90;;;;;;5135947;27;20046;-73
2022/12/26 01:05:48;;;;;;;52.70;13.07;;;8.50;99.90;;;;;;5136199;27;20035;-71
2022/12/26 01:08:14;;;;;;;53.60;12.85;;;8.50;99.90;;;;;;5135714;27;20047;-73
2022/12/26 01:10:44;;;;;;;42.58;12.25;;;8.60;99.90;;;;;;5100654;27;20058;-73
2022/12/26 01:13:10;;;;;;;53.00;12.98;;;8.60;99.90;;;;;;5136066;27;20043;-74
2022/12/26 01:15:36;;;;;;;60.30;14.45;;;8.60;99.90;;;;;;5101134;27;20130;-74
2022/12/26 01:18:02;;;;;;;70.07;14.20;;;8.60;99.90;;;;;;5117727;27;20553;-74
2022/12/26 01:20:28;;;;;;;54.08;13.65;;;8.60;99.90;;;;;;5135763;27;20047;-72
2022/12/26 01:22:55;;;;;;;67.73;14.87;;;8.60;99.90;;;;;;5100234;27;20171;-78
2022/12/26 01:25:21;;;;;;;60.42;14.80;;;8.60;99.90;;;;;;5136605;27;20043;-82
2022/12/26 01:27:47;;;;;;;70.72;14.80;;;8.60;99.90;;;;;;5119327;27;20045;-84
2022/12/26 01:30:12;;;;;;;63.20;14.38;;;8.60;99.90;;;;;;5119511;27;20534;-82
2022/12/26 01:32:38;;;;;;;69.95;16.08;;;8.60;99.90;;;;;;5136361;27;20058;-80
2022/12/26 01:35:04;;;;;;;68.65;15.52;;;8.60;99.90;;;;;;5136150;27;20391;-78
2022/12/26 01:37:30;;;;;;;62.17;14.88;;;8.60;99.90;;;;;;5117900;27;20051;-83
2022/12/26 01:39:56;;;;;;;55.45;15.15;;;8.60;99.90;;;;;;5101293;27;20053;-83
2022/12/26 01:42:24;;;;;;;52.40;15.63;;;8.60;99.90;;;;;;5137619;27;20388;-80
2022/12/26 01:45:14;;;;;;;57.05;15.65;;;8.60;99.90;;;;;;5118640;27;20406;-81
2022/12/26 01:47:50;;;;;;;59.92;16.75;;;8.60;99.90;;;;;;5136349;27;20053;-79
2022/12/26 01:50:52;;;;;;;56.97;17.95;;;8.60;99.90;;;;;;5136125;27;20065;-80
2022/12/26 01:53:30;;;;;;;60.10;19.02;;;8.60;99.90;;;;;;5117739;27;20445;-82
2022/12/26 01:56:25;;;;;;;57.35;16.90;;;8.60;99.90;;;;;;5136803;27;20047;-80
2022/12/26 01:58:56;;;;;;;64.72;19.35;;;8.60;99.90;;;;;;5115635;27;20047;-81
2022/12/26 02:01:26;;;;;;;64.82;19.15;;;8.60;99.90;;;;;;5136399;27;20043;-82
2022/12/26 02:06:37;;;;;;;67.22;21.67;;;8.60;99.90;;;;;;5117912;27;20054;-78
2022/12/26 02:09:03;;;;;;;74.45;21.45;;;8.70;99.90;;;;;;5135896;27;20395;-81
2022/12/26 02:11:39;;;;;;;83.53;22.27;;;8.60;99.90;;;;;;5136681;27;20046;-82
2022/12/26 02:14:06;;;;;;;78.67;21.23;;;8.70;99.90;;;;;;5138577;27;20381;-79
2022/12/26 02:16:33;;;;;;;77.47;21.30;;;8.70;99.90;;;;;;5138232;27;20122;-84
2022/12/26 02:18:58;;;;;;;66.35;21.23;;;8.70;99.90;;;;;;5139419;27;20047;-82
2022/12/26 02:21:52;;;;;;;74.35;21.02;;;8.70;99.90;;;;;;5119401;27;20111;-81
2022/12/26 02:25:02;;;;;;;74.10;21.42;;;8.70;99.90;;;;;;5136377;27;20371;-77
2022/12/26 02:28:07;;;;;;;81.00;21.40;;;8.70;99.90;;;;;;5093117;27;20079;-79
2022/12/26 02:30:36;;;;;;;70.60;19.73;;;8.70;99.90;;;;;;5116368;27;20051;-83
2022/12/26 02:33:21;;;;;;;82.53;20.90;;;8.70;99.90;;;;;;5134952;27;20058;-80
2022/12/26 02:36:14;;;;;;;82.85;22.48;;;8.70;99.90;;;;;;5135408;27;20043;-78
2022/12/26 02:38:45;;;;;;;78.60;22.58;;;8.70;99.90;;;;;;5136670;27;20053;-76
2022/12/26 02:41:21;;;;;;;91.45;24.10;;;8.70;99.90;;;;;;5137758;27;20374;-76
2022/12/26 02:47:48;;;;;;;82.90;22.00;;;8.80;99.90;;;;;;5117100;27;20054;-80
2022/12/26 03:13:28;;;;;;;89.43;22.58;;;8.90;99.90;;;;;;5134044;27;20051;-78
2022/12/26 03:18:48;;;;;;;85.03;22.73;;;8.90;99.90;;;;;;5116633;27;20439;-79
2022/12/26 03:21:18;;;;;;;95.80;22.92;;;8.80;99.90;;;;;;5134918;27;20036;-81
2022/12/26 03:23:46;;;;;;;88.22;23.27;;;8.80;99.90;;;;;;5116140;27;20094;-80
2022/12/26 03:31:46;;;;;;;89.85;22.30;;;8.80;99.90;;;;;;5117268;28;20043;-82
2022/12/26 03:34:18;;;;;;;88.70;21.65;;;8.80;99.90;;;;;;5134803;28;20046;-82
2022/12/26 03:37:06;;;;;;;81.47;21.40;;;8.70;99.90;;;;;;5134938;28;20363;-80
2022/12/26 04:44:13;;;;;;;;;;;8.70;99.90;;;;;;5137439;27;20102;-80
2022/12/26 04:46:42;;;;;;;79.18;18.58;;;8.70;99.90;;;;;;5119525;27;19919;-78
2022/12/26 04:51:59;;;;;;;81.28;19.48;;;8.50;99.90;;;;;;5138490;27;20047;-80
2022/12/26 04:54:26;;;;;;;87.97;19.75;;;8.60;99.90;;;;;;5118804;27;20035;-80
2022/12/26 04:56:52;;;;;;;86.33;20.60;;;8.50;99.90;;;;;;5119021;27;20047;-80
2022/12/26 04:59:18;;;;;;;83.75;19.35;;;8.50;99.90;;;;;;5137348;27;20479;-80
2022/12/26 05:10:25;;;;;;;78.70;20.23;;;8.50;99.90;;;;;;5138021;27;20051;-74
2022/12/26 05:12:52;;;;;;;94.97;23.20;;;8.40;99.90;;;;;;5138224;27;20064;-78
2022/12/26 05:15:18;;;;;;;84.95;21.05;;;8.40;99.90;;;;;;5103368;27;20054;-80
2022/12/26 05:28:58;;;;;;;80.22;21.38;;;8.20;99.90;;;;;;5105606;27;20431;-77
2022/12/26 05:31:24;;;;;;;89.75;23.08;;;8.30;99.90;;;;;;5137697;27;20078;-82
2022/12/26 05:34:14;;;;;;;83.25;23.30;;;8.30;99.90;;;;;;5119431;27;20055;-80
2022/12/26 05:36:50;;;;;;;93.45;24.20;;;8.30;99.90;;;;;;5122704;27;20069;-81
2022/12/26 05:39:16;;;;;;;98.93;24.73;;;8.30;99.90;;;;;;5136809;27;20491;-80
2022/12/26 05:41:41;;;;;;;84.85;22.75;;;8.30;99.90;;;;;;5101321;27;20122;-79
2022/12/26 05:44:09;;;;;;;87.90;22.50;;;8.30;99.90;;;;;;5119454;27;20077;-76
2022/12/26 05:46:35;;;;;;;89.85;22.15;;;8.30;99.90;;;;;;5117792;27;20051;-80
2022/12/26 05:49:02;;;;;;;87.53;22.77;;;8.30;99.90;;;;;;5136562;27;20108;-77
2022/12/26 05:51:28;;;;;;;89.07;22.42;;;8.30;99.90;;;;;;5116607;27;20130;-80
2022/12/26 05:53:54;;;;;;;83.55;22.88;;;8.30;99.90;;;;;;5117985;27;20122;-78
2022/12/26 05:56:20;;;;;;;76.78;21.60;;;8.30;99.90;;;;;;5136382;27;20051;-79
2022/12/26 05:58:46;;;;;;;84.95;22.85;;;8.30;99.90;;;;;;5136443;27;20521;-77
2022/12/26 06:01:19;;;;;;;81.68;21.70;;;8.20;99.90;;;;;;5118517;27;20379;-77
2022/12/26 06:03:47;;;;;;;80.70;23.15;;;8.20;99.90;;;;;;5101893;27;20111;-80
2022/12/26 06:06:13;;;;;;;82.35;22.67;;;8.30;99.90;;;;;;5119059;27;20074;-79
2022/12/26 06:08:39;;;;;;;81.80;21.38;;;8.30;99.90;;;;;;5118939;27;20501;-80
2022/12/26 06:11:10;;;;;;;74.45;20.88;;;8.20;99.90;;;;;;5135662;27;20039;-80
2022/12/26 06:13:37;;;;;;;68.20;19.95;;;8.30;99.90;;;;;;5138231;27;20065;-79
2022/12/26 06:16:05;;;;;;;71.30;20.77;;;8.30;99.90;;;;;;5103607;27;20046;-79
2022/12/26 06:18:30;;;;;;;62.67;16.77;;;8.40;99.90;;;;;;5122518;27;20489;-80
2022/12/26 06:20:56;;;;;;;73.35;19.00;;;8.50;99.90;;;;;;5138428;27;20125;-79
2022/12/26 06:23:22;;;;;;;67.22;19.92;;;8.50;99.90;;;;;;5117888;27;20046;-81
2022/12/26 06:25:55;;;;;;;74.72;23.88;;;8.50;99.90;;;;;;5118769;27;20054;-80
2022/12/26 06:28:22;;;;;;;61.63;17.48;;;8.50;99.90;;;;;;5136428;27;20039;-79
2022/12/26 06:30:48;;;;;;;;;;;8.60;99.90;;;;;;5137855;27;20054;-80
2022/12/26 06:33:14;;;;;;;57.27;17.23;;;8.60;99.90;;;;;;5136267;27;20002;-80
2022/12/26 06:35:40;;;;;;;65.78;18.92;;;8.60;99.90;;;;;;5101538;27;20105;-78
2022/12/26 06:38:06;;;;;;;70.45;19.55;;;8.50;99.90;;;;;;5119197;27;20051;-80
2022/12/26 06:40:31;;;;;;;66.05;18.80;;;8.50;99.90;;;;;;5136026;27;20091;-80
2022/12/26 06:42:57;;;;;;;66.13;19.95;;;8.50;99.90;;;;;;5135912;27;20204;-77
2022/12/26 06:45:23;;;;;;;68.00;19.42;;;8.50;99.90;;;;;;5117963;27;20047;-77
2022/12/26 06:47:48;;;;;;;65.72;19.90;;;8.50;99.90;;;;;;5117782;27;20043;-77
2022/12/26 06:50:14;;;;;;;69.57;19.33;;;8.60;99.90;;;;;;5119000;27;20042;-77
2022/12/26 06:52:40;;;;;;;66.63;20.63;;;8.60;99.90;;;;;;5135923;27;20040;-79
2022/12/26 06:55:06;;;;;;;66.55;19.92;;;8.50;99.90;;;;;;5135389;27;20055;-79
2022/12/26 06:57:31;;;;;;;51.13;15.48;;;8.50;99.90;;;;;;5117652;27;20120;-77
2022/12/26 06:59:57;;;;;;;66.72;18.73;;;8.40;99.90;;;;;;5136806;27;20390;-76
2022/12/26 07:02:23;;;;;;;68.82;20.17;;;8.30;99.90;;;;;;5100756;27;20118;-80
2022/12/26 07:04:48;;;;;;;75.72;21.98;;;8.20;99.90;;;;;;5119461;27;20043;-78
2022/12/26 07:07:14;;;;;;;85.13;23.30;;;8.20;99.90;;;;;;5135466;27;20491;-81
2022/12/26 07:09:40;;;;;;;71.40;21.85;;;8.10;99.90;;;;;;5136038;27;20035;-78
2022/12/26 07:12:06;;;;;;;65.20;19.95;;;8.00;99.90;;;;;;5136311;27;20089;-81
2022/12/26 07:14:32;;;;;;;76.28;21.42;;;8.00;99.90;;;;;;5118393;27;20100;-79
2022/12/26 07:16:57;;;;;;;77.20;23.35;;;7.90;99.90;;;;;;5137417;27;20451;-77
2022/12/26 07:19:23;;;;;;;74.20;21.75;;;7.90;99.90;;;;;;5117321;27;20035;-80
2022/12/26 07:21:49;;;;;;;75.00;20.63;;;8.00;99.90;;;;;;5117523;27;20133;-81
2022/12/26 07:24:19;;;;;;;79.72;21.73;;;7.90;99.90;;;;;;5117128;27;20074;-79
2022/12/26 07:26:46;;;;;;;75.03;22.58;;;7.90;99.90;;;;;;5116949;27;20054;-79
2022/12/26 07:29:13;;;;;;;65.22;18.92;;;7.90;99.90;;;;;;5135303;27;20054;-78
2022/12/26 07:31:39;;;;;;;71.57;21.88;;;7.80;99.90;;;;;;5135557;27;20051;-77
2022/12/26 07:34:05;;;;;;;84.67;24.80;;;7.80;99.90;;;;;;5135222;27;20047;-77
2022/12/26 07:36:31;;;;;;;87.35;22.33;;;7.80;99.90;;;;;;5116404;28;20047;-80
2022/12/26 07:38:57;;;;;;;74.47;22.15;;;7.80;99.90;;;;;;5117517;28;20502;-79
2022/12/26 07:44:11;;;;;;;85.53;22.40;;;7.90;99.90;;;;;;5136430;28;20070;-78
2022/12/26 07:46:37;;;;;;;81.07;22.42;;;7.90;99.90;;;;;;5101145;28;20051;-77
2022/12/26 07:49:03;;;;;;;80.20;22.45;;;7.90;99.90;;;;;;5118404;28;20125;-80
2022/12/26 07:51:28;;;;;;;74.75;22.10;;;7.80;99.90;;;;;;5136407;28;20518;-82
2022/12/26 07:53:54;;;;;;;72.07;21.45;;;7.80;99.90;;;;;;5118703;28;20171;-81
2022/12/26 07:56:20;;;;;;;76.82;21.33;;;7.80;99.90;;;;;;5136011;28;20046;-79
2022/12/26 07:58:49;;;;;;;68.13;20.63;;;7.90;99.90;;;;;;5117086;28;20079;-77
2022/12/26 08:01:15;;;;;;;67.30;18.75;;;7.90;99.90;;;;;;5136030;28;20043;-81
2022/12/26 08:03:41;;;;;;;68.13;21.35;;;7.90;99.90;;;;;;5117209;28;20053;-79
2022/12/26 08:06:09;;;;;;;56.90;16.83;;;7.90;99.90;;;;;;5135771;28;20118;-78
2022/12/26 08:08:36;;;;;;;63.10;19.05;;;7.80;99.90;;;;;;5117969;28;20484;-79
2022/12/26 08:11:03;;;;;;;62.70;18.75;;;7.80;99.90;;;;;;5100934;28;20083;-78
2022/12/26 08:13:29;;;;;;;59.53;17.98;;;7.80;99.90;;;;;;5101341;27;20043;-82
2022/12/26 08:15:56;;;;;;;64.15;18.80;;;7.80;99.90;;;;;;5120137;27;20043;-81
2022/12/26 08:18:22;;;;;;;56.60;18.25;;;7.80;99.90;;;;;;5139554;27;20050;-80
2022/12/26 08:20:48;;;;;;;58.97;17.63;;;7.80;99.90;;;;;;5105292;27;20051;-78
2022/12/26 08:23:15;;;;;;;53.28;15.73;;;7.80;99.90;;;;;;5140636;27;20172;-81
2022/12/26 08:25:40;;;;;;;50.17;14.75;;;7.90;99.90;;;;;;5139645;27;20047;-80
2022/12/26 08:28:06;;;;;;;46.35;14.70;;;8.00;99.90;;;;;;5140776;27;20047;-82
2022/12/26 08:30:32;;;;;;;46.50;14.75;;;8.10;99.90;;;;;;5140322;27;20115;-82
2022/12/26 08:32:58;;;;;;;43.80;15.90;;;8.20;99.90;;;;;;5121905;27;20192;-81
2022/12/26 08:35:23;;;;;;;48.42;15.77;;;8.30;99.90;;;;;;5143504;27;20100;-79
2022/12/26 08:37:49;;;;;;;44.88;13.80;;;8.40;99.90;;;;;;5122757;27;20202;-79
2022/12/26 08:40:15;;;;;;;42.90;15.65;;;8.50;99.90;;;;;;5106020;27;20062;-79
2022/12/26 08:42:41;;;;;;;46.30;14.02;;;8.60;99.90;;;;;;5087703;27;20058;-79
2022/12/26 08:45:07;;;;;;;43.03;13.55;;;8.70;99.90;;;;;;5140001;27;20145;-78
2022/12/26 08:47:32;;;;;;;50.30;13.68;;;8.70;99.90;;;;;;5123543;27;20392;-81
2022/12/26 08:49:58;;;;;;;46.53;13.45;;;8.80;99.90;;;;;;5123179;27;20059;-82
2022/12/26 08:52:24;;;;;;;32.63;11.27;;;8.90;99.90;;;;;;5124577;27;20135;-78
2022/12/26 08:54:49;;;;;;;34.13;10.07;;;8.90;99.90;;;;;;5141159;27;20078;-78
2022/12/26 08:57:15;;;;;;;32.15;10.27;;;9.00;99.90;;;;;;5140453;27;20086;-77
2022/12/26 08:59:41;;;;;;;30.85;9.38;;;9.10;99.90;;;;;;5139806;27;20043;-79
2022/12/26 09:02:10;;;;;;;27.35;9.65;;;9.20;99.90;;;;;;5139870;27;20047;-78
2022/12/26 09:04:36;;;;;;;30.67;9.95;;;9.30;99.90;;;;;;5104594;27;20039;-78
2022/12/26 09:07:02;;;;;;;20.52;7.28;;;9.40;99.90;;;;;;5139498;27;20043;-80
2022/12/26 09:09:28;;;;;;;24.50;7.80;;;9.50;99.90;;;;;;5139331;27;20050;-77
2022/12/26 09:11:54;;;;;;;31.83;8.40;;;9.60;99.90;;;;;;5138432;27;20035;-82
2022/12/26 09:14:20;;;;;;;24.25;8.63;;;9.70;99.90;;;;;;5121510;27;20047;-79
2022/12/26 09:16:46;;;;;;;25.58;7.68;;;9.60;99.90;;;;;;5119678;27;20055;-76
2022/12/26 09:19:13;;;;;;;23.13;8.27;;;9.60;99.90;;;;;;5119783;27;20121;-82
2022/12/26 09:21:40;;;;;;;44.47;11.13;;;9.60;99.90;;;;;;5137766;27;20205;-80
2022/12/26 09:24:11;;;;;;;23.15;9.00;;;9.60;99.90;;;;;;5119389;27;20047;-80
2022/12/26 09:26:37;;;;;;;24.15;8.73;;;9.60;99.90;;;;;;5138173;27;20512;-80
2022/12/26 09:29:03;;;;;;;21.60;7.82;;;9.50;99.90;;;;;;5120413;27;20043;-80
2022/12/26 09:31:32;;;;;;;23.53;8.67;;;9.50;99.90;;;;;;5137340;27;20178;-80
2022/12/26 09:34:00;;;;;;;25.63;7.53;;;9.50;99.90;;;;;;5102393;27;20107;-77
2022/12/26 09:36:31;;;;;;;20.30;7.72;;;9.60;99.90;;;;;;5119353;27;20043;-76
2022/12/26 09:38:58;;;;;;;25.67;8.23;;;9.60;99.90;;;;;;5119550;27;20140;-76
2022/12/26 09:41:36;;;;;;;23.83;7.95;;;9.60;99.90;;;;;;5137671;27;20111;-77
2022/12/26 09:44:08;;;;;;;22.60;7.03;;;9.70;99.90;;;;;;5120202;27;20428;-79
2022/12/26 09:46:51;;;;;;;31.08;7.80;;;9.70;99.90;;;;;;5118249;27;20047;-76
2022/12/26 09:49:24;;;;;;;21.52;6.35;;;9.70;99.90;;;;;;5118818;27;20056;-74
2022/12/26 09:51:55;;;;;;;19.95;6.68;;;9.80;99.90;;;;;;5117454;27;20039;-79
2022/12/26 09:54:32;;;;;;;16.80;5.22;;;9.80;99.90;;;;;;5136827;27;20043;-76
2022/12/26 09:57:00;;;;;;;19.15;5.50;;;9.80;99.90;;;;;;5135926;27;20074;-76
2022/12/26 09:59:28;;;;;;;20.48;5.65;;;9.90;99.90;;;;;;5135411;27;20054;-75
2022/12/26 10:01:54;;;;;;;19.35;6.07;;;9.90;99.90;;;;;;5100413;27;20095;-77
2022/12/26 10:04:28;;;;;;;11.00;5.00;;;9.90;99.90;;;;;;5117991;27;20035;-76
2022/12/26 10:07:12;;;;;;;20.65;5.13;;;9.90;99.90;;;;;;5100913;27;20051;-76
2022/12/26 10:09:44;;;;;;;19.45;5.35;;;9.80;99.90;;;;;;5100027;27;20106;-77
2022/12/26 10:12:20;;;;;;;14.00;4.72;;;9.60;99.90;;;;;;5135964;27;20051;-77
2022/12/26 10:14:52;;;;;;;19.23;4.63;;;9.50;99.90;;;;;;5100908;27;20070;-78
2022/12/26 10:17:43;;;;;;;26.55;3.60;;;9.30;99.90;;;;;;5117207;27;20043;-79
2022/12/26 10:20:12;;;;;;;27.02;3.55;;;9.20;99.90;;;;;;5117209;27;20047;-79
2022/12/26 10:23:12;;;;;;;26.00;2.90;;;8.80;99.90;;;;;;5117461;27;20536;-80
2022/12/26 10:26:03;;;;;;;21.52;2.38;;;8.50;99.90;;;;;;5118596;27;20058;-77
2022/12/26 10:28:40;;;;;;;12.75;1.25;;;8.30;99.90;;;;;;5117080;27;20510;-77
2022/12/26 10:31:33;;;;;;;16.60;1.23;;;8.20;99.90;;;;;;5135588;27;20099;-75
2022/12/26 10:34:12;;;;;;;26.88;1.40;;;8.10;99.90;;;;;;5123559;27;20058;-76
2022/12/26 10:37:06;;;;;;;15.45;1.30;;;8.00;99.90;;;;;;5135331;27;20046;-76
2022/12/26 10:39:42;;;;;;;19.13;2.03;;;7.90;99.90;;;;;;5107197;27;20579;-76
2022/12/26 10:42:20;;;;;;;19.23;2.35;;;8.00;99.90;;;;;;5112853;28;20138;-76
2022/12/26 10:44:46;;;;;;;22.83;1.35;;;8.00;99.90;;;;;;5114958;28;20123;-77
2022/12/26 10:47:22;;;;;;;17.58;1.23;;;8.00;99.90;;;;;;5113988;28;20035;-79
2022/12/26 10:49:48;;;;;;;28.50;1.45;;;8.10;99.90;;;;;;5114842;28;20392;-78
2022/12/26 10:52:16;;;;;;;13.55;0.98;;;8.30;99.90;;;;;;5114798;28;20044;-77
2022/12/26 10:54:48;;;;;;;18.80;1.73;;;8.50;99.90;;;;;;5116018;28;20044;-77
2022/12/26 10:57:14;;;;;;;19.48;1.23;;;8.50;99.90;;;;;;5114384;28;20460;-78
2022/12/26 10:59:48;;;;;;;12.43;0.85;;;8.50;99.90;;;;;;5114201;28;20039;-79
2022/12/26 11:02:25;;;;;;;16.25;0.82;;;8.50;99.90;;;;;;5096963;28;20090;-78
2022/12/26 11:05:01;;;;;;;14.05;0.93;;;8.40;99.90;;;;;;5112670;28;20135;-76
2022/12/26 11:07:31;;;;;;;14.55;0.98;;;8.40;99.90;;;;;;5114514;28;20117;-78
2022/12/26 11:09:58;;;;;;;18.02;1.25;;;8.30;99.90;;;;;;5114343;28;20050;-78
2022/12/26 11:12:40;;;;;;;20.05;1.08;;;8.30;99.90;;;;;;5114694;28;20445;-78
2022/12/26 11:15:34;;;;;;;18.60;0.80;;;8.20;99.90;;;;;;5096903;28;20059;-80
2022/12/26 11:18:19;;;;;;;14.75;0.95;;;8.10;99.90;;;;;;5113845;28;20050;-78
2022/12/26 11:20:46;;;;;;;16.63;0.85;;;8.10;99.90;;;;;;5115388;28;20218;-75
2022/12/26 11:23:24;;;;;;;25.48;2.03;;;8.10;99.90;;;;;;5113003;28;20058;-78
2022/12/26 11:25:55;;;;;;;13.52;0.77;;;8.10;99.90;;;;;;5113979;28;20368;-76
2022/12/26 11:28:36;;;;;;;17.35;2.03;;;8.10;99.90;;;;;;5115879;28;20144;-79
2022/12/26 11:31:17;;;;;;;16.75;1.55;;;8.00;99.90;;;;;;5097290;28;20047;-79
2022/12/26 11:33:44;;;;;;;9.90;0.68;;;7.80;99.90;;;;;;5114568;28;20054;-77
2022/12/26 11:36:16;;;;;;;18.65;1.40;;;7.90;99.90;;;;;;5096635;28;20080;-83
2022/12/26 11:38:50;;;;;;;17.40;0.90;;;7.90;99.90;;;;;;5113557;28;20352;-79
2022/12/26 11:41:41;;;;;;;23.27;1.10;;;7.80;99.90;;;;;;5098036;28;20058;-78
2022/12/26 11:44:14;;;;;;;18.75;1.60;;;7.80;99.90;;;;;;5113599;28;20050;-79
2022/12/26 11:46:51;;;;;;;18.05;1.23;;;7.70;99.90;;;;;;5113598;28;20510;-80
2022/12/26 11:49:21;;;;;;;17.58;0.85;;;7.70;99.90;;;;;;5116533;28;20164;-79
2022/12/26 11:51:48;;;;;;;15.98;1.92;;;7.80;99.90;;;;;;5117993;28;20139;-78
2022/12/26 11:54:30;;;;;;;15.27;0.90;;;7.80;99.90;;;;;;5117612;28;20039;-79
2022/12/26 11:57:21;;;;;;;18.83;1.13;;;7.70;99.90;;;;;;5099815;28;20059;-77
2022/12/26 11:59:48;;;;;;;12.73;0.65;;;7.60;99.90;;;;;;5117798;28;20074;-77
2022/12/26 12:02:18;;;;;;;12.95;0.55;;;7.60;99.90;;;;;;5099871;28;20048;-76
2022/12/26 12:04:46;;;;;;;24.90;1.30;;;7.60;99.90;;;;;;5116050;28;20047;-79
2022/12/26 12:07:31;;;;;;;22.05;1.58;;;7.70;99.90;;;;;;5117678;28;20122;-81
2022/12/26 12:10:02;;;;;;;17.65;0.88;;;7.70;99.90;;;;;;5117798;28;20065;-79
2022/12/26 12:12:57;;;;;;;19.95;1.20;;;7.70;99.90;;;;;;5117931;28;20043;-76
2022/12/26 12:15:46;;;;;;;16.45;1.20;;;7.60;99.90;;;;;;5116922;28;20047;-76
2022/12/26 12:18:45;;;;;;;24.90;1.42;;;7.60;99.90;;;;;;5116129;28;20047;-80
2022/12/26 12:21:24;;;;;;;19.90;1.05;;;7.40;99.90;;;;;;5098762;28;20036;-78
2022/12/26 12:24:11;;;;;;;20.10;1.92;;;7.30;99.90;;;;;;5116589;28;20432;-78
2022/12/26 12:27:28;;;;;;;19.95;0.82;;;7.20;99.90;;;;;;5115485;28;20498;-80
2022/12/26 12:30:14;;;;;;;24.88;1.95;;;7.20;99.90;;;;;;5092977;28;20061;-79
2022/12/26 12:32:52;;;;;;;25.13;2.00;;;7.10;99.90;;;;;;5098837;28;20439;-80
2022/12/26 12:35:37;;;;;;;23.75;2.20;;;7.00;99.90;;;;;;5116763;28;20055;-79
2022/12/26 12:38:14;;;;;;;21.55;1.63;;;7.10;99.90;;;;;;5116676;28;20042;-77
2022/12/26 12:41:09;;;;;;;32.30;3.40;;;7.00;99.90;;;;;;5117086;28;20050;-79
2022/12/26 12:43:53;;;;;;;18.92;1.40;;;7.00;99.90;;;;;;5106922;28;20047;-78
2022/12/26 12:46:36;;;;;;;17.77;1.48;;;6.90;99.90;;;;;;5116407;28;20136;-77
2022/12/26 12:49:22;;;;;;;27.85;1.65;;;6.90;99.90;;;;;;5116938;28;20044;-77
2022/12/26 12:52:02;;;;;;;26.52;2.08;;;6.80;99.90;;;;;;5098983;28;20047;-78
2022/12/26 12:54:43;;;;;;;23.58;2.30;;;6.70;99.90;;;;;;5116705;28;20488;-78
2022/12/26 12:57:37;;;;;;;24.48;1.52;;;6.60;99.90;;;;;;5081366;28;20051;-79
2022/12/26 13:00:17;;;;;;;36.85;3.88;;;6.60;99.90;;;;;;5097481;28;20058;-80
2022/12/26 13:02:51;;;;;;;38.80;4.50;;;6.60;99.90;;;;;;5115728;28;20115;-77
2022/12/26 13:06:02;;;;;;;41.20;4.95;;;6.50;99.90;;;;;;5115856;28;20040;-81
2022/12/26 13:08:42;;;;;;;36.78;4.38;;;6.50;99.90;;;;;;5100792;28;20067;-81
2022/12/26 13:11:18;;;;;;;34.13;4.22;;;6.50;99.90;;;;;;5117705;28;20159;-78
2022/12/26 13:14:22;;;;;;;32.85;2.88;;;6.60;99.90;;;;;;5117681;28;20048;-79
2022/12/26 13:17:04;;;;;;;30.20;2.60;;;6.50;99.90;;;;;;5114211;28;20519;-80
2022/12/26 13:19:44;;;;;;;34.05;2.60;;;6.60;99.90;;;;;;5097737;28;20048;-77
2022/12/26 13:22:16;;;;;;;26.65;1.73;;;6.40;99.90;;;;;;5115283;28;20043;-85
2022/12/26 13:24:48;;;;;;;18.77;1.95;;;6.40;99.90;;;;;;5115060;28;20092;-77
2022/12/26 13:27:24;;;;;;;23.92;2.67;;;6.40;99.90;;;;;;5115850;28;20144;-78
2022/12/26 13:29:51;;;;;;;32.60;1.80;;;6.30;99.90;;;;;;5098280;28;20429;-75
2022/12/26 13:32:23;;;;;;;38.05;1.83;;;6.20;99.90;;;;;;5115323;28;20089;-79
2022/12/26 13:34:51;;;;;;;21.77;1.20;;;6.10;99.90;;;;;;5114268;28;20192;-80
2022/12/26 13:37:38;;;;;;;24.20;1.35;;;6.20;99.90;;;;;;5080095;28;20058;-80
2022/12/26 13:40:17;;;;;;;19.48;1.15;;;6.10;99.90;;;;;;5114031;28;20047;-78
2022/12/26 13:45:53;;;;;;;26.58;1.00;;;6.10;99.90;;;;;;5117594;27;20150;-76
2022/12/26 13:48:26;;;;;;;21.55;1.95;;;6.00;99.90;;;;;;5118061;27;20145;-75
2022/12/26 13:50:51;;;;;;;17.42;1.13;;;6.00;99.90;;;;;;5135477;27;20043;-76
2022/12/26 13:53:23;;;;;;;29.33;2.08;;;5.90;99.90;;;;;;5135171;27;20545;-75
2022/12/26 13:55:50;;;;;;;20.92;2.50;;;5.80;99.90;;;;;;5135318;27;20053;-76
2022/12/26 13:58:44;;;;;;;25.70;1.67;;;5.80;99.90;;;;;;5135254;27;20126;-78
2022/12/26 14:01:33;;;;;;;20.08;1.10;;;5.80;99.90;;;;;;5135114;27;20467;-76
2022/12/26 14:04:21;;;;;;;20.50;1.17;;;5.70;99.90;;;;;;5135246;27;20081;-76
2022/12/26 14:07:26;;;;;;;13.85;0.90;;;5.70;99.90;;;;;;5116889;27;20111;-75
2022/12/26 14:09:56;;;;;;;24.48;2.15;;;5.60;99.90;;;;;;5135943;27;20100;-77
2022/12/26 14:12:43;;;;;;;22.77;2.00;;;5.70;99.90;;;;;;5134286;27;20050;-76
2022/12/26 14:15:11;;;;;;;;;;;5.70;99.90;;;;;;5135448;27;20047;-76
2022/12/26 14:17:46;;;;;;;27.55;2.50;;;5.60;99.90;;;;;;5116633;27;19919;-76
2022/12/26 14:20:37;;;;;;;14.80;1.10;;;5.60;99.90;;;;;;5116781;27;20054;-76
2022/12/26 14:23:26;;;;;;;20.27;1.00;;;5.60;99.90;;;;;;5134856;27;20363;-76
2022/12/26 14:26:02;;;;;;;24.98;1.42;;;5.50;99.90;;;;;;5116490;27;20046;-76
2022/12/26 14:28:46;;;;;;;13.88;1.98;;;5.40;99.90;;;;;;5134657;27;20078;-76
2022/12/26 14:31:42;;;;;;;26.30;2.47;;;5.40;99.90;;;;;;5134587;27;20047;-78
2022/12/26 14:34:25;;;;;;;22.85;1.60;;;6.10;99.90;;;;;;5116194;27;20055;-76
2022/12/26 14:37:24;;;;;;;22.27;1.63;;;5.60;99.90;;;;;;5135030;27;20540;-76
2022/12/26 14:39:56;;;;;;;25.20;1.92;;;5.40;99.90;;;;;;5090748;27;20055;-76
2022/12/26 14:45:28;;;;;;;15.18;1.10;;;5.30;99.90;;;;;;5116232;27;20501;-77
2022/12/26 14:47:54;;;;;;;24.95;2.08;;;5.10;99.90;;;;;;5134856;27;20364;-76
2022/12/26 14:50:38;;;;;;;21.55;1.33;;;5.20;99.90;;;;;;5134324;27;20051;-76
2022/12/26 14:53:28;;;;;;;27.27;3.38;;;5.20;99.90;;;;;;5134268;27;20247;-75
2022/12/26 14:56:09;;;;;;;20.83;1.50;;;5.00;99.90;;;;;;5116339;27;20415;-78
2022/12/26 14:58:50;;;;;;;26.13;2.63;;;5.10;99.90;;;;;;5134919;27;20365;-76
2022/12/26 15:01:16;;;;;;;27.90;2.63;;;5.10;99.90;;;;;;5116172;27;20051;-77
2022/12/26 15:03:58;;;;;;;22.00;1.75;;;5.10;99.90;;;;;;5116393;27;20054;-78
2022/12/26 15:06:40;;;;;;;26.90;3.03;;;5.00;99.90;;;;;;5115755;27;20050;-77
2022/12/26 15:09:40;;;;;;;20.02;1.40;;;5.00;99.90;;;;;;5134778;27;20051;-77
2022/12/26 15:12:31;;;;;;;25.65;2.00;;;4.90;99.90;;;;;;5098831;27;20111;-77
2022/12/26 15:15:25;;;;;;;23.88;2.03;;;4.90;99.90;;;;;;5115752;27;20047;-78
2022/12/26 15:17:54;;;;;;;15.88;1.20;;;4.80;99.90;;;;;;5115854;27;20056;-78
2022/12/26 15:20:44;;;;;;;18.48;2.45;;;4.80;99.90;;;;;;5115714;27;20043;-77
2022/12/26 15:23:31;;;;;;;20.85;1.60;;;4.80;99.90;;;;;;5133805;27;20074;-77
2022/12/26 15:26:33;;;;;;;12.63;1.13;;;4.80;99.90;;;;;;5134763;27;20047;-78
2022/12/26 15:29:16;;;;;;;14.57;1.20;;;4.70;99.90;;;;;;5116137;27;20138;-76